Terminal Aerodrome Forecast
Issued by NWS

Home | Current Version | Previous Version | Text Only | Print | Product List | Glossary On
Versions: 1 2 3 4 5 6 7 8 9 10 11 12 13
000
FTUS44 KEPZ 280500
TAFLRU
TAF
KLRU 280521Z 2806/2906 VRB04KT P6SM FEW140 SCT220
     FM280900 30005KT P6SM SCT250
     FM281800 23010KT P6SM FEW250
     FM282200 25015G24KT P6SM FEW250=

USA.gov is the U.S. government's official web portal to all federal, state and local government web resources and services.